Bratsk, Russia
Current Conditions -  °F | °C
As of 2:30 PM on Sunday 26 Oct 2014 (Local Time) from UIBB Reporting Station
Broken Clouds Broken Clouds  
Wind Chill: 23°   Ceiling: 10000
Heat Index: 32°   Visibility: 6mi
Dew Point: 19°   Wind: 11mph
Humidity: 60%   Direction: 170°S
Pressure: 29.97"   Gusts: NA
Location:  56.3°N, 101.71°E
Report Text: UIBB 260630Z 17005MPS 9999 BKN100 M00/M07 Q1015 NOSIG RMKQFE718/0957 30850540
Loading
Personal Weather Stations






























Interactive Weather Map
Tropical Storm Tracking
New forecast layout! Learn more

10-Day Weather Forecast

Advertisements
Track Severe Weather on mobile